DAL1327 KLAX-KIAH
Flight info
| Callsign | DAL1327 |
|---|---|
| Flight time | 2h 23m |
| Altitude | 41000 |
| Route | DOTSS2 CNERY BLH SPTFR Q4 FUSCO DIESL TTORO3 |
| Aircraft | A359/H-SDE2E3GHIJ3J4J5LM1ORWXY/LB1D1 |
Departure
| Time | 2026-05-04 01:49 |
|---|---|
| Airport | Los Angeles International Airport (KLAX) |
Arrival
| Time | 2026-05-04 04:13 |
|---|---|
| Airport | George Bush Intercontinental Airport (KIAH) |
| Time | Latitude | Longitude | Altitude | Speed | Heading |
|---|---|---|---|---|---|
| 2026-05-04 01:20 | 33.94543 | -118.41449 | 127 ft | 0 kts | 264° |
| 2026-05-04 01:41 | 33.94543 | -118.41443 | 132 ft | 2 kts | 263° |
| 2026-05-04 01:41 | 33.94545 | -118.41424 | 129 ft | 2 kts | 263° |
| 2026-05-04 01:41 | 33.94547 | -118.41404 | 132 ft | 2 kts | 263° |
| 2026-05-04 01:42 | 33.94545 | -118.41385 | 132 ft | 2 kts | 295° |
| 2026-05-04 01:42 | 33.94536 | -118.41368 | 129 ft | 2 kts | 316° |
| 2026-05-04 01:42 | 33.94522 | -118.41359 | 132 ft | 2 kts | 356° |
| 2026-05-04 01:42 | 33.94510 | -118.41357 | 132 ft | 0 kts | 353° |
| 2026-05-04 01:43 | 33.94509 | -118.41357 | 132 ft | 0 kts | 353° |
| 2026-05-04 01:45 | 33.94511 | -118.41357 | 132 ft | 2 kts | 353° |
| 2026-05-04 01:45 | 33.94558 | -118.41364 | 132 ft | 11 kts | 353° |
| 2026-05-04 01:45 | 33.94739 | -118.41392 | 128 ft | 10 kts | 355° |
| 2026-05-04 01:46 | 33.94787 | -118.41346 | 127 ft | 10 kts | 76° |
| 2026-05-04 01:46 | 33.94799 | -118.41247 | 129 ft | 13 kts | 83° |
| 2026-05-04 01:46 | 33.94812 | -118.41122 | 132 ft | 17 kts | 83° |
| 2026-05-04 01:46 | 33.94827 | -118.40972 | 125 ft | 20 kts | 83° |
| 2026-05-04 01:47 | 33.94845 | -118.40797 | 132 ft | 22 kts | 83° |
| 2026-05-04 01:47 | 33.94865 | -118.40600 | 127 ft | 25 kts | 83° |
| 2026-05-04 01:47 | 33.94886 | -118.40394 | 132 ft | 21 kts | 83° |
| 2026-05-04 01:47 | 33.94905 | -118.40211 | 128 ft | 23 kts | 83° |
| 2026-05-04 01:48 | 33.94923 | -118.40043 | 129 ft | 21 kts | 83° |
| 2026-05-04 01:48 | 33.94940 | -118.39949 | 127 ft | 10 kts | 62° |
| 2026-05-04 01:48 | 33.95006 | -118.39914 | 123 ft | 12 kts | 351° |
| 2026-05-04 01:48 | 33.95038 | -118.39989 | 128 ft | 12 kts | 267° |
| 2026-05-04 01:49 | 33.95022 | -118.40150 | 129 ft | 42 kts | 263° |
| 2026-05-04 01:49 | 33.94956 | -118.40794 | 127 ft | 111 kts | 263° |
| 2026-05-04 01:49 | 33.94836 | -118.41952 | 263 ft | 157 kts | 262° |
| 2026-05-04 01:49 | 33.94716 | -118.43242 | 1086 ft | 153 kts | 264° |
| 2026-05-04 01:50 | 33.94596 | -118.44486 | 2018 ft | 147 kts | 263° |
| 2026-05-04 01:50 | 33.94466 | -118.45733 | 2673 ft | 155 kts | 262° |
| 2026-05-04 01:50 | 33.94324 | -118.47128 | 2954 ft | 184 kts | 263° |
| 2026-05-04 01:50 | 33.94243 | -118.48798 | 3201 ft | 215 kts | 268° |
| 2026-05-04 01:51 | 33.94204 | -118.50717 | 3572 ft | 240 kts | 268° |
| 2026-05-04 01:51 | 33.94156 | -118.52070 | 3983 ft | 249 kts | 266° |
| 2026-05-04 01:51 | 33.94000 | -118.54156 | 4854 ft | 251 kts | 264° |
| 2026-05-04 01:51 | 33.93823 | -118.56272 | 5707 ft | 255 kts | 264° |
| 2026-05-04 01:52 | 33.93648 | -118.58402 | 6657 ft | 256 kts | 265° |
| 2026-05-04 01:52 | 33.93339 | -118.60518 | 7552 ft | 259 kts | 252° |
| 2026-05-04 01:52 | 33.92456 | -118.62422 | 8412 ft | 265 kts | 229° |
| 2026-05-04 01:52 | 33.90956 | -118.63725 | 9344 ft | 271 kts | 204° |
| 2026-05-04 01:53 | 33.89103 | -118.64155 | 10296 ft | 276 kts | 183° |
| 2026-05-04 01:53 | 33.87117 | -118.64071 | 10797 ft | 297 kts | 179° |
| 2026-05-04 01:53 | 33.84977 | -118.63807 | 11144 ft | 321 kts | 172° |
| 2026-05-04 01:53 | 33.82848 | -118.62806 | 11759 ft | 337 kts | 153° |
| 2026-05-04 01:54 | 33.80859 | -118.61248 | 12582 ft | 344 kts | 149° |
| 2026-05-04 01:54 | 33.78883 | -118.59605 | 13423 ft | 348 kts | 149° |
| 2026-05-04 01:54 | 33.76887 | -118.57951 | 14221 ft | 351 kts | 150° |
| 2026-05-04 01:54 | 33.74846 | -118.56276 | 14902 ft | 358 kts | 150° |
| 2026-05-04 01:55 | 33.72768 | -118.54582 | 15550 ft | 365 kts | 151° |
| 2026-05-04 01:55 | 33.70731 | -118.52684 | 16157 ft | 379 kts | 142° |
| 2026-05-04 01:55 | 33.69146 | -118.50068 | 16778 ft | 400 kts | 121° |
| 2026-05-04 01:55 | 33.68092 | -118.46917 | 17404 ft | 412 kts | 115° |
| 2026-05-04 01:56 | 33.67144 | -118.43627 | 17970 ft | 421 kts | 114° |
| 2026-05-04 01:56 | 33.66181 | -118.40284 | 18519 ft | 428 kts | 115° |
| 2026-05-04 01:56 | 33.65193 | -118.36885 | 19063 ft | 434 kts | 115° |
| 2026-05-04 01:56 | 33.64491 | -118.33320 | 19623 ft | 447 kts | 99° |
| 2026-05-04 01:57 | 33.64381 | -118.29612 | 20202 ft | 455 kts | 93° |
| 2026-05-04 01:57 | 33.64403 | -118.25795 | 20778 ft | 460 kts | 93° |
| 2026-05-04 01:57 | 33.64430 | -118.21933 | 21361 ft | 465 kts | 93° |
| 2026-05-04 01:57 | 33.64446 | -118.18025 | 21957 ft | 470 kts | 93° |
| 2026-05-04 01:58 | 33.64455 | -118.14079 | 22542 ft | 476 kts | 93° |
| 2026-05-04 01:58 | 33.64458 | -118.10090 | 23146 ft | 481 kts | 93° |
| 2026-05-04 01:58 | 33.64457 | -118.06059 | 23689 ft | 486 kts | 93° |
| 2026-05-04 01:58 | 33.64455 | -118.01982 | 24199 ft | 491 kts | 93° |
| 2026-05-04 01:59 | 33.64450 | -117.97870 | 24653 ft | 496 kts | 93° |
| 2026-05-04 01:59 | 33.64443 | -117.93716 | 25089 ft | 502 kts | 93° |
| 2026-05-04 01:59 | 33.64435 | -117.89489 | 25541 ft | 508 kts | 93° |
| 2026-05-04 01:59 | 33.64425 | -117.85227 | 25966 ft | 513 kts | 93° |
| 2026-05-04 02:00 | 33.64329 | -117.80932 | 26403 ft | 516 kts | 99° |
| 2026-05-04 02:00 | 33.63713 | -117.76717 | 26837 ft | 514 kts | 110° |
| 2026-05-04 02:00 | 33.62737 | -117.72571 | 27246 ft | 517 kts | 113° |
| 2026-05-04 02:00 | 33.61701 | -117.68415 | 27716 ft | 521 kts | 113° |
| 2026-05-04 02:01 | 33.60657 | -117.64234 | 28142 ft | 526 kts | 113° |
| 2026-05-04 02:01 | 33.59604 | -117.59999 | 28572 ft | 532 kts | 113° |
| 2026-05-04 02:01 | 33.58544 | -117.55730 | 29016 ft | 536 kts | 113° |
| 2026-05-04 02:01 | 33.57475 | -117.51423 | 29401 ft | 542 kts | 113° |
| 2026-05-04 02:02 | 33.56395 | -117.47074 | 29769 ft | 547 kts | 113° |
| 2026-05-04 02:02 | 33.55320 | -117.42749 | 30173 ft | 551 kts | 113° |
| 2026-05-04 02:02 | 33.54220 | -117.38328 | 30463 ft | 556 kts | 113° |
| 2026-05-04 02:02 | 33.53107 | -117.33864 | 30751 ft | 562 kts | 114° |
| 2026-05-04 02:03 | 33.51967 | -117.29305 | 31079 ft | 565 kts | 114° |
| 2026-05-04 02:03 | 33.50928 | -117.24803 | 31417 ft | 574 kts | 108° |
| 2026-05-04 02:03 | 33.50425 | -117.20006 | 31739 ft | 586 kts | 97° |
| 2026-05-04 02:03 | 33.50312 | -117.15116 | 32001 ft | 591 kts | 94° |
| 2026-05-04 02:04 | 33.50265 | -117.10172 | 32337 ft | 594 kts | 94° |
| 2026-05-04 02:04 | 33.50218 | -117.05213 | 32641 ft | 597 kts | 95° |
| 2026-05-04 02:04 | 33.50161 | -117.00226 | 32935 ft | 601 kts | 95° |
| 2026-05-04 02:04 | 33.50095 | -116.95204 | 33236 ft | 604 kts | 95° |
| 2026-05-04 02:05 | 33.50023 | -116.90160 | 33519 ft | 608 kts | 95° |
| 2026-05-04 02:05 | 33.49947 | -116.85077 | 33737 ft | 611 kts | 95° |
| 2026-05-04 02:05 | 33.49869 | -116.79993 | 34082 ft | 612 kts | 95° |
| 2026-05-04 02:05 | 33.49787 | -116.74886 | 34337 ft | 614 kts | 95° |
| 2026-05-04 02:06 | 33.49704 | -116.69774 | 34645 ft | 613 kts | 95° |
| 2026-05-04 02:06 | 33.49619 | -116.64678 | 35069 ft | 611 kts | 95° |
| 2026-05-04 02:06 | 33.49532 | -116.59596 | 35448 ft | 609 kts | 95° |
| 2026-05-04 02:06 | 33.49443 | -116.54540 | 35926 ft | 605 kts | 95° |
| 2026-05-04 02:07 | 33.49351 | -116.49509 | 36218 ft | 605 kts | 95° |
| 2026-05-04 02:07 | 33.49256 | -116.44470 | 36486 ft | 606 kts | 95° |
| 2026-05-04 02:07 | 33.49163 | -116.39438 | 36805 ft | 605 kts | 95° |
| 2026-05-04 02:07 | 33.49088 | -116.34398 | 37204 ft | 602 kts | 95° |
| 2026-05-04 02:08 | 33.49021 | -116.29409 | 37586 ft | 599 kts | 95° |
| 2026-05-04 02:08 | 33.48949 | -116.24425 | 37812 ft | 599 kts | 95° |
| 2026-05-04 02:08 | 33.48789 | -116.14341 | 37908 ft | 609 kts | 95° |
| 2026-05-04 02:09 | 33.48709 | -116.09284 | 38322 ft | 605 kts | 95° |
| 2026-05-04 02:09 | 33.48907 | -116.04253 | 38643 ft | 606 kts | 84° |
| 2026-05-04 02:09 | 33.49821 | -115.99342 | 38953 ft | 602 kts | 71° |
| 2026-05-04 02:09 | 33.51141 | -115.94604 | 39263 ft | 598 kts | 69° |
| 2026-05-04 02:10 | 33.52521 | -115.89928 | 39742 ft | 591 kts | 68° |
| 2026-05-04 02:10 | 33.53884 | -115.85323 | 40245 ft | 583 kts | 69° |
| 2026-05-04 02:10 | 33.55226 | -115.80763 | 40633 ft | 578 kts | 69° |
| 2026-05-04 02:10 | 33.56559 | -115.76210 | 40754 ft | 579 kts | 69° |
| 2026-05-04 02:11 | 33.59220 | -115.67073 | 40755 ft | 581 kts | 69° |
| 2026-05-04 02:11 | 33.61446 | -115.57758 | 40759 ft | 583 kts | 83° |
| 2026-05-04 02:12 | 33.61757 | -115.48073 | 40763 ft | 581 kts | 93° |
| 2026-05-04 02:12 | 33.61460 | -115.38393 | 40758 ft | 581 kts | 95° |
| 2026-05-04 02:13 | 33.61097 | -115.28698 | 40763 ft | 582 kts | 95° |
| 2026-05-04 02:13 | 33.60798 | -115.18971 | 40757 ft | 585 kts | 95° |
| 2026-05-04 02:14 | 33.60537 | -115.09211 | 40751 ft | 586 kts | 95° |
| 2026-05-04 02:14 | 33.60278 | -114.99444 | 40732 ft | 586 kts | 94° |
| 2026-05-04 02:15 | 33.60007 | -114.89677 | 40743 ft | 586 kts | 94° |
| 2026-05-04 02:15 | 33.59723 | -114.79918 | 40739 ft | 585 kts | 94° |
| 2026-05-04 02:16 | 33.59276 | -114.75088 | 40744 ft | 581 kts | 105° |
| 2026-05-04 02:16 | 33.58517 | -114.70348 | 40751 ft | 579 kts | 106° |
| 2026-05-04 02:16 | 33.56816 | -114.60967 | 40741 ft | 579 kts | 107° |
| 2026-05-04 02:17 | 33.54996 | -114.51505 | 40749 ft | 579 kts | 108° |
| 2026-05-04 02:17 | 33.53197 | -114.42179 | 40766 ft | 579 kts | 108° |
| 2026-05-04 02:18 | 33.51394 | -114.32774 | 40760 ft | 579 kts | 108° |
| 2026-05-04 02:18 | 33.49587 | -114.23351 | 40768 ft | 581 kts | 108° |
| 2026-05-04 02:19 | 33.47774 | -114.13927 | 40774 ft | 581 kts | 108° |
| 2026-05-04 02:19 | 33.45950 | -114.04491 | 40778 ft | 581 kts | 108° |
| 2026-05-04 02:20 | 33.44117 | -113.95061 | 40823 ft | 583 kts | 108° |
| 2026-05-04 02:20 | 33.42273 | -113.85610 | 40901 ft | 583 kts | 108° |
| 2026-05-04 02:21 | 33.40421 | -113.76162 | 40967 ft | 583 kts | 108° |
| 2026-05-04 02:21 | 33.38425 | -113.66767 | 40991 ft | 581 kts | 112° |
| 2026-05-04 02:22 | 33.35847 | -113.57657 | 40971 ft | 577 kts | 115° |
| 2026-05-04 02:22 | 33.33177 | -113.48608 | 40915 ft | 577 kts | 115° |
| 2026-05-04 02:23 | 33.30587 | -113.39515 | 40781 ft | 578 kts | 114° |
| 2026-05-04 02:23 | 33.28043 | -113.30380 | 40779 ft | 580 kts | 113° |
| 2026-05-04 02:24 | 33.25502 | -113.21234 | 40777 ft | 580 kts | 114° |
| 2026-05-04 02:24 | 33.22952 | -113.12100 | 40779 ft | 579 kts | 113° |
| 2026-05-04 02:25 | 33.20413 | -113.03050 | 40772 ft | 579 kts | 113° |
| 2026-05-04 02:25 | 33.17828 | -112.93873 | 40785 ft | 579 kts | 113° |
| 2026-05-04 02:26 | 33.15254 | -112.84765 | 40792 ft | 579 kts | 113° |
| 2026-05-04 02:26 | 33.12691 | -112.75723 | 40796 ft | 579 kts | 113° |
| 2026-05-04 02:27 | 33.10100 | -112.66611 | 40774 ft | 581 kts | 113° |
| 2026-05-04 02:27 | 33.07500 | -112.57493 | 40788 ft | 580 kts | 113° |
| 2026-05-04 02:28 | 33.04904 | -112.48391 | 40791 ft | 580 kts | 113° |
| 2026-05-04 02:28 | 33.02392 | -112.39253 | 40803 ft | 581 kts | 112° |
| 2026-05-04 02:29 | 32.99900 | -112.30084 | 40811 ft | 582 kts | 112° |
| 2026-05-04 02:29 | 32.97388 | -112.20913 | 40812 ft | 582 kts | 112° |
| 2026-05-04 02:30 | 32.94860 | -112.11763 | 40818 ft | 582 kts | 112° |
| 2026-05-04 02:30 | 32.92321 | -112.02620 | 40842 ft | 582 kts | 112° |
| 2026-05-04 02:31 | 32.89774 | -111.93478 | 40851 ft | 582 kts | 112° |
| 2026-05-04 02:31 | 32.87222 | -111.84340 | 40858 ft | 582 kts | 112° |
| 2026-05-04 02:32 | 32.84664 | -111.75210 | 40858 ft | 582 kts | 112° |
| 2026-05-04 02:32 | 32.82094 | -111.66068 | 40847 ft | 584 kts | 112° |
| 2026-05-04 02:33 | 32.79515 | -111.56922 | 40821 ft | 583 kts | 112° |
| 2026-05-04 02:33 | 32.76937 | -111.47800 | 40850 ft | 582 kts | 112° |
| 2026-05-04 02:34 | 32.74354 | -111.38696 | 40874 ft | 581 kts | 112° |
| 2026-05-04 02:34 | 32.71766 | -111.29603 | 40879 ft | 581 kts | 112° |
| 2026-05-04 02:35 | 32.69171 | -111.20517 | 40875 ft | 581 kts | 112° |
| 2026-05-04 02:35 | 32.66586 | -111.11492 | 40881 ft | 581 kts | 112° |
| 2026-05-04 02:36 | 32.63978 | -111.02411 | 40873 ft | 582 kts | 112° |
| 2026-05-04 02:36 | 32.61364 | -110.93340 | 40884 ft | 581 kts | 112° |
| 2026-05-04 02:37 | 32.58744 | -110.84274 | 40888 ft | 581 kts | 112° |
| 2026-05-04 02:37 | 32.56119 | -110.75221 | 40890 ft | 581 kts | 112° |
| 2026-05-04 02:38 | 32.53485 | -110.66167 | 40902 ft | 581 kts | 112° |
| 2026-05-04 02:38 | 32.50845 | -110.57115 | 40897 ft | 581 kts | 112° |
| 2026-05-04 02:39 | 32.48196 | -110.48059 | 40897 ft | 581 kts | 112° |
| 2026-05-04 02:39 | 32.45973 | -110.40485 | 40909 ft | 581 kts | 112° |
| 2026-05-04 02:40 | 32.43317 | -110.31458 | 40902 ft | 581 kts | 112° |
| 2026-05-04 02:40 | 32.40668 | -110.22481 | 40898 ft | 581 kts | 112° |
| 2026-05-04 02:41 | 32.37996 | -110.13450 | 40880 ft | 581 kts | 112° |
| 2026-05-04 02:41 | 32.35317 | -110.04426 | 40859 ft | 582 kts | 112° |
| 2026-05-04 02:42 | 32.32626 | -109.95387 | 40836 ft | 582 kts | 112° |
| 2026-05-04 02:42 | 32.29983 | -109.86359 | 40845 ft | 582 kts | 108° |
| 2026-05-04 02:43 | 32.28444 | -109.76970 | 40847 ft | 582 kts | 99° |
| 2026-05-04 02:43 | 32.27273 | -109.67487 | 40844 ft | 583 kts | 98° |
| 2026-05-04 02:44 | 32.26164 | -109.57999 | 40834 ft | 583 kts | 98° |
| 2026-05-04 02:44 | 32.25031 | -109.48504 | 40844 ft | 584 kts | 98° |
| 2026-05-04 02:45 | 32.23870 | -109.39016 | 40839 ft | 585 kts | 98° |
| 2026-05-04 02:45 | 32.22693 | -109.29502 | 40841 ft | 585 kts | 98° |
| 2026-05-04 02:46 | 32.21508 | -109.19991 | 40844 ft | 585 kts | 98° |
| 2026-05-04 02:46 | 32.20317 | -109.10482 | 40842 ft | 585 kts | 98° |
| 2026-05-04 02:47 | 32.19121 | -109.00982 | 40854 ft | 584 kts | 98° |
| 2026-05-04 02:47 | 32.17920 | -108.91497 | 40853 ft | 584 kts | 98° |
| 2026-05-04 02:48 | 32.16719 | -108.82080 | 40858 ft | 584 kts | 98° |
| 2026-05-04 02:48 | 32.15504 | -108.72610 | 40969 ft | 584 kts | 98° |
| 2026-05-04 02:49 | 32.14281 | -108.63129 | 40962 ft | 585 kts | 98° |
| 2026-05-04 02:49 | 32.13047 | -108.53630 | 40937 ft | 585 kts | 99° |
| 2026-05-04 02:50 | 32.11808 | -108.44139 | 40902 ft | 585 kts | 99° |
| 2026-05-04 02:50 | 32.10560 | -108.34642 | 40873 ft | 586 kts | 98° |
| 2026-05-04 02:51 | 32.09304 | -108.25143 | 40873 ft | 586 kts | 98° |
| 2026-05-04 02:51 | 32.08042 | -108.15651 | 40872 ft | 586 kts | 99° |
| 2026-05-04 02:52 | 32.06772 | -108.06154 | 40873 ft | 586 kts | 99° |
| 2026-05-04 02:52 | 32.05495 | -107.96664 | 40873 ft | 586 kts | 99° |
| 2026-05-04 02:53 | 32.04211 | -107.87168 | 40876 ft | 586 kts | 99° |
| 2026-05-04 02:53 | 32.02919 | -107.77680 | 40952 ft | 586 kts | 99° |
| 2026-05-04 02:54 | 32.01620 | -107.68188 | 40949 ft | 587 kts | 99° |
| 2026-05-04 02:54 | 32.00311 | -107.58680 | 40925 ft | 589 kts | 99° |
| 2026-05-04 02:55 | 31.98332 | -107.44403 | 40881 ft | 589 kts | 99° |
| 2026-05-04 02:56 | 31.97002 | -107.34878 | 40884 ft | 590 kts | 99° |
| 2026-05-04 02:56 | 31.95661 | -107.25328 | 40859 ft | 592 kts | 99° |
| 2026-05-04 02:57 | 31.94312 | -107.15775 | 40879 ft | 590 kts | 99° |
| 2026-05-04 02:57 | 31.92963 | -107.06271 | 40884 ft | 589 kts | 99° |
| 2026-05-04 02:58 | 31.91606 | -106.96773 | 40883 ft | 588 kts | 99° |
| 2026-05-04 02:58 | 31.90244 | -106.87280 | 41017 ft | 589 kts | 99° |
| 2026-05-04 02:59 | 31.88872 | -106.77774 | 41054 ft | 589 kts | 99° |
| 2026-05-04 02:59 | 31.87493 | -106.68274 | 41075 ft | 589 kts | 99° |
| 2026-05-04 03:00 | 31.86114 | -106.58823 | 41047 ft | 591 kts | 99° |
| 2026-05-04 03:00 | 31.84716 | -106.49293 | 41016 ft | 592 kts | 99° |
| 2026-05-04 03:01 | 31.83311 | -106.39767 | 41040 ft | 591 kts | 99° |
| 2026-05-04 03:01 | 31.81897 | -106.30233 | 41011 ft | 591 kts | 99° |
| 2026-05-04 03:02 | 31.80581 | -106.20714 | 40998 ft | 590 kts | 97° |
| 2026-05-04 03:02 | 31.79503 | -106.11139 | 40952 ft | 590 kts | 96° |
| 2026-05-04 03:03 | 31.78436 | -106.01578 | 40918 ft | 590 kts | 97° |
| 2026-05-04 03:03 | 31.77316 | -105.92023 | 40898 ft | 589 kts | 97° |
| 2026-05-04 03:04 | 31.76168 | -105.82487 | 40898 ft | 589 kts | 97° |
| 2026-05-04 03:04 | 31.75009 | -105.72960 | 40900 ft | 589 kts | 97° |
| 2026-05-04 03:05 | 31.73846 | -105.63442 | 40884 ft | 589 kts | 97° |
| 2026-05-04 03:05 | 31.72679 | -105.53922 | 40903 ft | 586 kts | 98° |
| 2026-05-04 03:06 | 31.71511 | -105.44461 | 40902 ft | 584 kts | 98° |
| 2026-05-04 03:06 | 31.70339 | -105.35023 | 40900 ft | 585 kts | 98° |
| 2026-05-04 03:07 | 31.69158 | -105.25572 | 40882 ft | 584 kts | 98° |
| 2026-05-04 03:07 | 31.67980 | -105.16206 | 40902 ft | 584 kts | 97° |
| 2026-05-04 03:08 | 31.66780 | -105.06720 | 40908 ft | 583 kts | 97° |
| 2026-05-04 03:08 | 31.65590 | -104.97365 | 40908 ft | 584 kts | 97° |
| 2026-05-04 03:09 | 31.64383 | -104.87944 | 40917 ft | 583 kts | 98° |
| 2026-05-04 03:09 | 31.63172 | -104.78540 | 40917 ft | 583 kts | 98° |
| 2026-05-04 03:10 | 31.61955 | -104.69149 | 40916 ft | 582 kts | 98° |
| 2026-05-04 03:10 | 31.60730 | -104.59753 | 40922 ft | 583 kts | 98° |
| 2026-05-04 03:11 | 31.59499 | -104.50363 | 40921 ft | 583 kts | 98° |
| 2026-05-04 03:11 | 31.58259 | -104.40959 | 40927 ft | 583 kts | 98° |
| 2026-05-04 03:12 | 31.57014 | -104.31573 | 40927 ft | 583 kts | 98° |
| 2026-05-04 03:12 | 31.55762 | -104.22184 | 40928 ft | 583 kts | 98° |
| 2026-05-04 03:13 | 31.54503 | -104.12808 | 40919 ft | 583 kts | 97° |
| 2026-05-04 03:13 | 31.53235 | -104.03409 | 40913 ft | 584 kts | 98° |
| 2026-05-04 03:14 | 31.51958 | -103.94001 | 40916 ft | 585 kts | 98° |
| 2026-05-04 03:14 | 31.50675 | -103.84595 | 40920 ft | 584 kts | 98° |
| 2026-05-04 03:15 | 31.49387 | -103.75206 | 40949 ft | 583 kts | 98° |
| 2026-05-04 03:15 | 31.48094 | -103.65839 | 40978 ft | 582 kts | 98° |
| 2026-05-04 03:16 | 31.46795 | -103.56480 | 41003 ft | 582 kts | 98° |
| 2026-05-04 03:16 | 31.45601 | -103.47096 | 41005 ft | 582 kts | 96° |
| 2026-05-04 03:17 | 31.44497 | -103.37745 | 40992 ft | 578 kts | 96° |
| 2026-05-04 03:17 | 31.43379 | -103.28428 | 40967 ft | 578 kts | 97° |
| 2026-05-04 03:18 | 31.42233 | -103.19119 | 40941 ft | 578 kts | 97° |
| 2026-05-04 03:18 | 31.41080 | -103.09879 | 40916 ft | 577 kts | 97° |
| 2026-05-04 03:19 | 31.39906 | -103.00532 | 40920 ft | 576 kts | 97° |
| 2026-05-04 03:19 | 31.38744 | -102.91319 | 40929 ft | 576 kts | 97° |
| 2026-05-04 03:20 | 31.37567 | -102.82042 | 40928 ft | 576 kts | 97° |
| 2026-05-04 03:20 | 31.36384 | -102.72768 | 40947 ft | 577 kts | 97° |
| 2026-05-04 03:21 | 31.35192 | -102.63476 | 40936 ft | 578 kts | 97° |
| 2026-05-04 03:21 | 31.33990 | -102.54164 | 40944 ft | 579 kts | 97° |
| 2026-05-04 03:22 | 31.32782 | -102.44859 | 40957 ft | 579 kts | 97° |
| 2026-05-04 03:22 | 31.31566 | -102.35556 | 40960 ft | 579 kts | 97° |
| 2026-05-04 03:23 | 31.30344 | -102.26253 | 40970 ft | 579 kts | 97° |
| 2026-05-04 03:23 | 31.29115 | -102.16946 | 40982 ft | 579 kts | 97° |
| 2026-05-04 03:24 | 31.27879 | -102.07643 | 40983 ft | 579 kts | 97° |
| 2026-05-04 03:24 | 31.26636 | -101.98344 | 40995 ft | 578 kts | 97° |
| 2026-05-04 03:25 | 31.25389 | -101.89065 | 41002 ft | 577 kts | 97° |
| 2026-05-04 03:25 | 31.24137 | -101.79803 | 40997 ft | 577 kts | 97° |
| 2026-05-04 03:26 | 31.22872 | -101.70486 | 41006 ft | 584 kts | 97° |
| 2026-05-04 03:26 | 31.21798 | -101.62618 | 41007 ft | 587 kts | 97° |
| 2026-05-04 03:27 | 31.20503 | -101.53185 | 41017 ft | 587 kts | 97° |
| 2026-05-04 03:27 | 31.19203 | -101.43775 | 41023 ft | 587 kts | 97° |
| 2026-05-04 03:28 | 31.17905 | -101.34430 | 41024 ft | 587 kts | 97° |
| 2026-05-04 03:28 | 31.16937 | -101.24930 | 41027 ft | 584 kts | 91° |
| 2026-05-04 03:29 | 31.16314 | -101.15471 | 41026 ft | 584 kts | 92° |
| 2026-05-04 03:29 | 31.15624 | -101.06078 | 41026 ft | 585 kts | 92° |
| 2026-05-04 03:30 | 31.14894 | -100.96624 | 41034 ft | 585 kts | 92° |
| 2026-05-04 03:30 | 31.14151 | -100.87171 | 41035 ft | 585 kts | 93° |
| 2026-05-04 03:31 | 31.13399 | -100.77719 | 41040 ft | 585 kts | 93° |
| 2026-05-04 03:31 | 31.12640 | -100.68272 | 41047 ft | 585 kts | 93° |
| 2026-05-04 03:32 | 31.11874 | -100.58825 | 41049 ft | 585 kts | 93° |
| 2026-05-04 03:32 | 31.11101 | -100.49383 | 41052 ft | 584 kts | 93° |
| 2026-05-04 03:33 | 31.10322 | -100.39950 | 41046 ft | 584 kts | 93° |
| 2026-05-04 03:33 | 31.09537 | -100.30524 | 41039 ft | 584 kts | 93° |
| 2026-05-04 03:34 | 31.08745 | -100.21101 | 41039 ft | 583 kts | 93° |
| 2026-05-04 03:34 | 31.07946 | -100.11686 | 41040 ft | 583 kts | 93° |
| 2026-05-04 03:35 | 31.07142 | -100.02276 | 41038 ft | 583 kts | 93° |
| 2026-05-04 03:35 | 31.06330 | -99.92872 | 41031 ft | 583 kts | 93° |
| 2026-05-04 03:36 | 31.05517 | -99.83533 | 41032 ft | 574 kts | 93° |
| 2026-05-04 03:36 | 31.04707 | -99.74304 | 41029 ft | 571 kts | 93° |
| 2026-05-04 03:37 | 31.03893 | -99.65095 | 41037 ft | 571 kts | 93° |
| 2026-05-04 03:37 | 31.03071 | -99.55879 | 41036 ft | 571 kts | 93° |
| 2026-05-04 03:38 | 31.02242 | -99.46664 | 41042 ft | 572 kts | 93° |
| 2026-05-04 03:38 | 31.01407 | -99.37451 | 41079 ft | 571 kts | 93° |
| 2026-05-04 03:39 | 31.00566 | -99.28243 | 41078 ft | 571 kts | 94° |
| 2026-05-04 03:39 | 30.99719 | -99.19044 | 41068 ft | 571 kts | 94° |
| 2026-05-04 03:40 | 30.98864 | -99.09838 | 41065 ft | 571 kts | 94° |
| 2026-05-04 03:40 | 30.98004 | -99.00642 | 41063 ft | 571 kts | 94° |
| 2026-05-04 03:41 | 30.97137 | -98.91452 | 41067 ft | 571 kts | 94° |
| 2026-05-04 03:41 | 30.96256 | -98.82261 | 41065 ft | 571 kts | 95° |
| 2026-05-04 03:42 | 30.94984 | -98.73123 | 41072 ft | 572 kts | 98° |
| 2026-05-04 03:42 | 30.93665 | -98.63990 | 41109 ft | 571 kts | 97° |
| 2026-05-04 03:43 | 30.92375 | -98.54869 | 41107 ft | 571 kts | 97° |
| 2026-05-04 03:43 | 30.91096 | -98.45798 | 41102 ft | 571 kts | 97° |
| 2026-05-04 03:44 | 30.89807 | -98.36681 | 41110 ft | 571 kts | 97° |
| 2026-05-04 03:44 | 30.88511 | -98.27558 | 41116 ft | 571 kts | 97° |
| 2026-05-04 03:45 | 30.87207 | -98.18426 | 41123 ft | 572 kts | 97° |
| 2026-05-04 03:45 | 30.86554 | -98.13872 | 41002 ft | 568 kts | 97° |
| 2026-05-04 03:45 | 30.85903 | -98.09347 | 40313 ft | 568 kts | 97° |
| 2026-05-04 03:45 | 30.85249 | -98.04800 | 39473 ft | 572 kts | 97° |
| 2026-05-04 03:46 | 30.84587 | -98.00218 | 38672 ft | 575 kts | 97° |
| 2026-05-04 03:46 | 30.83921 | -97.95618 | 37765 ft | 578 kts | 97° |
| 2026-05-04 03:46 | 30.83251 | -97.91016 | 37049 ft | 577 kts | 98° |
| 2026-05-04 03:46 | 30.82577 | -97.86426 | 36386 ft | 575 kts | 98° |
| 2026-05-04 03:47 | 30.81903 | -97.81845 | 35706 ft | 574 kts | 98° |
| 2026-05-04 03:47 | 30.81229 | -97.77269 | 34999 ft | 574 kts | 98° |
| 2026-05-04 03:47 | 30.80553 | -97.72688 | 34213 ft | 576 kts | 98° |
| 2026-05-04 03:47 | 30.79873 | -97.68099 | 33535 ft | 573 kts | 98° |
| 2026-05-04 03:48 | 30.79198 | -97.63556 | 33002 ft | 567 kts | 98° |
| 2026-05-04 03:48 | 30.78528 | -97.59057 | 32450 ft | 562 kts | 98° |
| 2026-05-04 03:48 | 30.77863 | -97.54597 | 31913 ft | 558 kts | 98° |
| 2026-05-04 03:48 | 30.77202 | -97.50180 | 31516 ft | 550 kts | 98° |
| 2026-05-04 03:49 | 30.76548 | -97.45824 | 31043 ft | 543 kts | 98° |
| 2026-05-04 03:49 | 30.75901 | -97.41518 | 30531 ft | 539 kts | 98° |
| 2026-05-04 03:49 | 30.75259 | -97.37251 | 30224 ft | 531 kts | 98° |
| 2026-05-04 03:49 | 30.74623 | -97.33035 | 29915 ft | 530 kts | 98° |
| 2026-05-04 03:50 | 30.73995 | -97.28883 | 29579 ft | 525 kts | 98° |
| 2026-05-04 03:50 | 30.73617 | -97.26393 | 29301 ft | 522 kts | 98° |
| 2026-05-04 03:50 | 30.73015 | -97.22427 | 28805 ft | 517 kts | 98° |
| 2026-05-04 03:50 | 30.72392 | -97.18328 | 28300 ft | 513 kts | 98° |
| 2026-05-04 03:51 | 30.71773 | -97.14266 | 27775 ft | 509 kts | 98° |
| 2026-05-04 03:51 | 30.71156 | -97.10232 | 27264 ft | 505 kts | 98° |
| 2026-05-04 03:51 | 30.70543 | -97.06231 | 26748 ft | 501 kts | 98° |
| 2026-05-04 03:51 | 30.69934 | -97.02257 | 26259 ft | 497 kts | 98° |
| 2026-05-04 03:52 | 30.69328 | -96.98314 | 25758 ft | 494 kts | 98° |
| 2026-05-04 03:52 | 30.68724 | -96.94402 | 25267 ft | 491 kts | 98° |
| 2026-05-04 03:52 | 30.68123 | -96.90509 | 24743 ft | 488 kts | 98° |
| 2026-05-04 03:52 | 30.67525 | -96.86644 | 24241 ft | 485 kts | 98° |
| 2026-05-04 03:53 | 30.66929 | -96.82803 | 23741 ft | 482 kts | 98° |
| 2026-05-04 03:53 | 30.66345 | -96.79040 | 23159 ft | 478 kts | 98° |
| 2026-05-04 03:53 | 30.65756 | -96.75261 | 22642 ft | 472 kts | 98° |
| 2026-05-04 03:53 | 30.65174 | -96.71529 | 22125 ft | 467 kts | 99° |
| 2026-05-04 03:54 | 30.64600 | -96.67846 | 21625 ft | 461 kts | 99° |
| 2026-05-04 03:54 | 30.64026 | -96.64201 | 21114 ft | 456 kts | 99° |
| 2026-05-04 03:54 | 30.63456 | -96.60602 | 20613 ft | 451 kts | 99° |
| 2026-05-04 03:54 | 30.62891 | -96.57037 | 20100 ft | 446 kts | 99° |
| 2026-05-04 03:55 | 30.62332 | -96.53510 | 19580 ft | 442 kts | 99° |
| 2026-05-04 03:55 | 30.61771 | -96.49975 | 19076 ft | 437 kts | 99° |
| 2026-05-04 03:55 | 30.61209 | -96.46564 | 18599 ft | 433 kts | 101° |
| 2026-05-04 03:55 | 30.60386 | -96.43220 | 18042 ft | 430 kts | 110° |
| 2026-05-04 03:56 | 30.59129 | -96.40100 | 17447 ft | 425 kts | 121° |
| 2026-05-04 03:56 | 30.57511 | -96.37261 | 16923 ft | 418 kts | 127° |
| 2026-05-04 03:56 | 30.55805 | -96.34558 | 16463 ft | 412 kts | 128° |
| 2026-05-04 03:56 | 30.54114 | -96.31907 | 15986 ft | 406 kts | 128° |
| 2026-05-04 03:57 | 30.52451 | -96.29295 | 15522 ft | 400 kts | 128° |
| 2026-05-04 03:57 | 30.50816 | -96.26721 | 15052 ft | 394 kts | 128° |
| 2026-05-04 03:57 | 30.49202 | -96.24180 | 14587 ft | 388 kts | 128° |
| 2026-05-04 03:57 | 30.47612 | -96.21674 | 14103 ft | 383 kts | 128° |
| 2026-05-04 03:58 | 30.44507 | -96.16780 | 13124 ft | 371 kts | 128° |
| 2026-05-04 03:58 | 30.42993 | -96.14395 | 12671 ft | 364 kts | 128° |
| 2026-05-04 03:58 | 30.41507 | -96.12056 | 12225 ft | 358 kts | 128° |
| 2026-05-04 03:59 | 30.40036 | -96.09742 | 11780 ft | 354 kts | 128° |
| 2026-05-04 03:59 | 30.38580 | -96.07461 | 11327 ft | 350 kts | 128° |
| 2026-05-04 03:59 | 30.37000 | -96.05352 | 10854 ft | 344 kts | 137° |
| 2026-05-04 03:59 | 30.35142 | -96.03646 | 10429 ft | 338 kts | 149° |
| 2026-05-04 04:00 | 30.33070 | -96.02449 | 10162 ft | 326 kts | 161° |
| 2026-05-04 04:00 | 30.30979 | -96.01620 | 10049 ft | 310 kts | 164° |
| 2026-05-04 04:00 | 30.28970 | -96.00888 | 9938 ft | 296 kts | 165° |
| 2026-05-04 04:00 | 30.27044 | -96.00188 | 9819 ft | 284 kts | 165° |
| 2026-05-04 04:01 | 30.25169 | -95.99504 | 9540 ft | 285 kts | 165° |
| 2026-05-04 04:01 | 30.23255 | -95.98806 | 9220 ft | 290 kts | 165° |
| 2026-05-04 04:01 | 30.21334 | -95.98103 | 8933 ft | 290 kts | 165° |
| 2026-05-04 04:01 | 30.19442 | -95.97409 | 8649 ft | 289 kts | 165° |
| 2026-05-04 04:02 | 30.17532 | -95.96707 | 8360 ft | 288 kts | 165° |
| 2026-05-04 04:02 | 30.15626 | -95.96008 | 8080 ft | 287 kts | 164° |
| 2026-05-04 04:02 | 30.13726 | -95.95311 | 7815 ft | 286 kts | 165° |
| 2026-05-04 04:02 | 30.11832 | -95.94619 | 7766 ft | 286 kts | 165° |
| 2026-05-04 04:03 | 30.09959 | -95.93924 | 7725 ft | 281 kts | 164° |
| 2026-05-04 04:03 | 30.08104 | -95.93235 | 7698 ft | 280 kts | 164° |
| 2026-05-04 04:03 | 30.06254 | -95.92546 | 7632 ft | 280 kts | 163° |
| 2026-05-04 04:03 | 30.04445 | -95.91716 | 7590 ft | 281 kts | 156° |
| 2026-05-04 04:04 | 30.02759 | -95.90577 | 7534 ft | 282 kts | 147° |
| 2026-05-04 04:04 | 30.01256 | -95.89111 | 7461 ft | 284 kts | 136° |
| 2026-05-04 04:04 | 29.99996 | -95.87360 | 7405 ft | 285 kts | 126° |
| 2026-05-04 04:04 | 29.99059 | -95.85340 | 7388 ft | 286 kts | 112° |
| 2026-05-04 04:05 | 29.98528 | -95.83128 | 7313 ft | 287 kts | 99° |
| 2026-05-04 04:05 | 29.98438 | -95.80850 | 7198 ft | 286 kts | 86° |
| 2026-05-04 04:05 | 29.98746 | -95.78580 | 7092 ft | 285 kts | 78° |
| 2026-05-04 04:05 | 29.99088 | -95.76333 | 6996 ft | 283 kts | 83° |
| 2026-05-04 04:06 | 29.99214 | -95.74134 | 6986 ft | 266 kts | 88° |
| 2026-05-04 04:06 | 29.99245 | -95.72074 | 6980 ft | 250 kts | 89° |
| 2026-05-04 04:06 | 29.99259 | -95.70093 | 6814 ft | 244 kts | 90° |
| 2026-05-04 04:06 | 29.99270 | -95.68144 | 6473 ft | 240 kts | 90° |
| 2026-05-04 04:07 | 29.99284 | -95.66283 | 6262 ft | 224 kts | 90° |
| 2026-05-04 04:07 | 29.99289 | -95.64524 | 5962 ft | 214 kts | 90° |
| 2026-05-04 04:07 | 29.99319 | -95.62834 | 5627 ft | 208 kts | 88° |
| 2026-05-04 04:07 | 29.99350 | -95.61172 | 5244 ft | 207 kts | 90° |
| 2026-05-04 04:08 | 29.99354 | -95.59507 | 4747 ft | 207 kts | 91° |
| 2026-05-04 04:08 | 29.99353 | -95.57849 | 4244 ft | 207 kts | 92° |
| 2026-05-04 04:08 | 29.99349 | -95.56186 | 3718 ft | 207 kts | 92° |
| 2026-05-04 04:08 | 29.99344 | -95.54555 | 3286 ft | 205 kts | 92° |
| 2026-05-04 04:09 | 29.99343 | -95.52966 | 3011 ft | 190 kts | 91° |
| 2026-05-04 04:09 | 29.99344 | -95.51511 | 2800 ft | 175 kts | 92° |
| 2026-05-04 04:09 | 29.99344 | -95.50163 | 2587 ft | 165 kts | 92° |
| 2026-05-04 04:09 | 29.99344 | -95.48851 | 2378 ft | 160 kts | 93° |
| 2026-05-04 04:10 | 29.99344 | -95.47570 | 2159 ft | 163 kts | 93° |
| 2026-05-04 04:10 | 29.99345 | -95.46298 | 1950 ft | 154 kts | 94° |
| 2026-05-04 04:10 | 29.99345 | -95.45107 | 1739 ft | 143 kts | 94° |
| 2026-05-04 04:10 | 29.99345 | -95.44003 | 1558 ft | 133 kts | 95° |
| 2026-05-04 04:11 | 29.99344 | -95.42943 | 1384 ft | 132 kts | 96° |
| 2026-05-04 04:11 | 29.99343 | -95.41873 | 1212 ft | 134 kts | 95° |
| 2026-05-04 04:11 | 29.99344 | -95.40800 | 1035 ft | 134 kts | 96° |
| 2026-05-04 04:11 | 29.99343 | -95.39738 | 856 ft | 133 kts | 94° |
| 2026-05-04 04:12 | 29.99344 | -95.38657 | 679 ft | 135 kts | 94° |
| 2026-05-04 04:12 | 29.99345 | -95.37577 | 473 ft | 133 kts | 94° |
| 2026-05-04 04:12 | 29.99343 | -95.36500 | 304 ft | 135 kts | 92° |
| 2026-05-04 04:12 | 29.99342 | -95.35427 | 146 ft | 133 kts | 92° |
| 2026-05-04 04:13 | 29.99342 | -95.34730 | 113 ft | 116 kts | 90° |
| 2026-05-04 04:13 | 29.99343 | -95.34001 | 112 ft | 68 kts | 90° |
| 2026-05-04 04:13 | 29.99342 | -95.33641 | 114 ft | 32 kts | 90° |
| 2026-05-04 04:13 | 29.99336 | -95.33396 | 111 ft | 25 kts | 99° |
| 2026-05-04 04:14 | 29.99279 | -95.33228 | 112 ft | 24 kts | 119° |
| 2026-05-04 04:14 | 29.99232 | -95.33133 | 112 ft | 0 kts | 121° |
| 2026-05-04 04:14 | 29.99228 | -95.33126 | 111 ft | 4 kts | 122° |
| 2026-05-04 04:15 | 29.99195 | -95.33113 | 110 ft | 6 kts | 191° |
| 2026-05-04 04:15 | 29.99177 | -95.33163 | 110 ft | 10 kts | 271° |
| 2026-05-04 04:15 | 29.99177 | -95.33279 | 113 ft | 17 kts | 270° |
| 2026-05-04 04:15 | 29.99177 | -95.33425 | 113 ft | 20 kts | 270° |
| 2026-05-04 04:16 | 29.99177 | -95.33594 | 113 ft | 22 kts | 270° |
| 2026-05-04 04:16 | 29.99176 | -95.33778 | 113 ft | 17 kts | 270° |
| 2026-05-04 04:16 | 29.99177 | -95.33900 | 113 ft | 10 kts | 270° |
| 2026-05-04 04:16 | 29.99152 | -95.33972 | 110 ft | 11 kts | 216° |
| 2026-05-04 04:17 | 29.99078 | -95.33982 | 111 ft | 10 kts | 179° |
| 2026-05-04 04:17 | 29.99007 | -95.33986 | 111 ft | 8 kts | 200° |
| 2026-05-04 04:17 | 29.98994 | -95.34027 | 112 ft | 7 kts | 267° |
| 2026-05-04 04:17 | 29.98993 | -95.34091 | 113 ft | 9 kts | 269° |
| 2026-05-04 04:18 | 29.98993 | -95.34118 | 113 ft | 1 kts | 270° |
| 2026-05-04 04:18 | 29.98993 | -95.34120 | 113 ft | 0 kts | 270° |